Luliang Air Base

CN-0041 · 云南, 中国

METAR CN-0041 · Luliang Air Base

14 六月 13:00 LT
19m
使用的METAR站距离机场72 km。
罗盘
风向 的 风向 020° Luliang Air Base 4/22
风: 10 kt, 3 beaufort

9 kt

3 kt
改变
0 ft 1.000 2.000 3.000 4.000 5.000
Cloud Cloud Cloud Cloud
SCT 2.000
Cloud Cloud Cloud Cloud Cloud Cloud
BKN 4.000
METAR ZPPP 140500Z 02005MPS 9999 -SHRA SCT020 BKN040 21/16 Q1016 NOSIG

METAR Luliang Air Base - CN-0041

Luliang Air Base是,中国中的中型机场。 该机场位于纬度24,98819和经度103,64283。 该机场有一条跑道: 4/22. 这个机场没有ICAO代码,我们使用CN-0041作为参考。 机场在Kunming FIR中。

该航空气象观测是针对Kunming Changshui International Airport在2024年6月14日 13:00, 当地时间进行的。

机场观察

风向为020°,速度为10 kt。

可见度为10 km 或者更多。

有疏云,零星散落的云朵在2.000 ft的高度 和 碎云在4.000 ft的高度。 破损或更高的上限为4.000 ft。

当前天气为光 阵雨 雨。 温度和风寒是21 °C。 露点为16 °C,相对湿度为73%。 海平面上的气压为1016 hPa (QNH)。

白天

今天,太阳从06:15升起,在19:56降落。 这适用于Luliang Air Base,世界夏令时可能有所不同。 当地时间与世界标准时间之间的时差为+8 小时。 夏令时目前正在进行中。

公司介绍

我们没有关于这个机场的公司信息。

体会

到Vliegles.nl去找飞行课程,跳伞和其他飞行体验。 浏览页面,了解Luliang Air Base附近所有可用的活动。 你也可以使用搜索功能来寻找你所在地附近的特定飞行课程、跳伞或其他飞行体验。

跑道

Id 标题 侧风 逆风 侧风 %
4/22 038°-218° 3 kt 9 kt 31 %

逆风成分最大的方向会被突出显示,并用于横风计算。 这并不一定意味着这个方向在使用。

乌云

2.000 ft SCT 疏云,零星散落的云朵
4.000 ft BKN 碎云

温度 & 天气

天气 光 阵雨 雨
温度 21 °C
露点 16 °C
相对湿度 73%
Kp-index 1 (0-9)

白天

日出
06:17
中午
13:08
日落
19:59 (6:40)

小工具

你想在你的网站上有一个关于Luliang Air Base的当前航空天气(METAR)的小部件吗?

显示HTML代码
报告变更